Time;durP1;ratioP1;P1;durP2;ratioP2;P2;SDS_P1;SDS_P2;PMS_P1;PMS_P2;Temp;Humidity;BMP_temperature;BMP_pressure;BME280_temperature;BME280_humidity;BME280_pressure;Samples;Min_cycle;Max_cycle;Signal;HPM_P1;HPM_P2
2021/05/30 00:00:16;;;;;;;11.10;8.93;;;14.10;85.40;;;;;;5132988;27;20166;-81
2021/05/30 00:02:43;;;;;;;10.50;9.45;;;14.10;86.20;;;;;;5133020;27;20158;-81
2021/05/30 00:05:11;;;;;;;9.80;8.90;;;14.10;86.70;;;;;;5131690;27;20162;-81
2021/05/30 00:07:37;;;;;;;9.07;8.27;;;14.10;87.50;;;;;;5132528;27;20197;-80
2021/05/30 00:10:07;;;;;;;10.10;9.20;;;14.00;87.80;;;;;;5132883;27;20158;-81
2021/05/30 00:12:33;;;;;;;10.18;9.10;;;14.00;89.00;;;;;;5133146;27;20937;-80
2021/05/30 00:15:05;;;;;;;11.90;9.55;;;14.00;89.10;;;;;;5136033;27;20170;-80
2021/05/30 00:17:31;;;;;;;10.35;9.35;;;13.90;90.00;;;;;;5131477;27;20273;-81
2021/05/30 00:19:57;;;;;;;9.23;7.90;;;13.90;90.10;;;;;;5134113;27;20226;-80
2021/05/30 00:22:22;;;;;;;10.47;9.50;;;13.90;90.30;;;;;;5135093;27;20700;-80
2021/05/30 00:24:48;;;;;;;10.27;9.27;;;13.90;90.50;;;;;;5131397;27;20170;-80
2021/05/30 00:27:14;;;;;;;10.80;9.40;;;13.90;90.80;;;;;;5130617;27;20724;-80
2021/05/30 00:29:39;;;;;;;10.43;9.43;;;13.80;91.00;;;;;;5114166;28;20158;-80
2021/05/30 00:32:05;;;;;;;12.70;9.77;;;13.80;91.40;;;;;;5131097;27;20190;-80
2021/05/30 00:34:31;;;;;;;10.07;8.90;;;13.80;91.70;;;;;;5132239;27;20228;-80
2021/05/30 00:36:57;;;;;;;11.17;9.70;;;13.80;91.90;;;;;;5130854;27;20653;-81
2021/05/30 00:39:22;;;;;;;10.20;9.03;;;13.80;92.10;;;;;;5132488;27;20580;-81
2021/05/30 00:41:48;;;;;;;10.20;9.30;;;13.70;92.40;;;;;;5131047;27;20645;-80
2021/05/30 00:44:28;;;;;;;11.87;9.43;;;13.70;92.70;;;;;;5130951;27;20182;-81
2021/05/30 00:46:55;;;;;;;10.45;9.10;;;13.70;93.60;;;;;;5130529;27;20530;-81
2021/05/30 00:49:21;;;;;;;10.02;9.02;;;13.60;93.20;;;;;;5132402;27;20495;-81
2021/05/30 00:51:47;;;;;;;9.30;8.50;;;13.60;93.50;;;;;;5130724;27;20696;-81
2021/05/30 00:54:14;;;;;;;10.23;9.13;;;13.60;93.70;;;;;;5107448;22;20220;-77
2021/05/30 00:56:41;;;;;;;10.05;9.15;;;13.60;94.00;;;;;;5050610;28;20618;-77
2021/05/30 00:59:08;;;;;;;10.60;9.50;;;13.60;94.30;;;;;;5050692;28;20192;-78
2021/05/30 01:01:34;;;;;;;9.93;8.40;;;13.50;94.60;;;;;;5049225;28;20173;-78
2021/05/30 01:04:00;;;;;;;11.40;10.23;;;13.50;94.70;;;;;;5042699;28;20635;-77
2021/05/30 01:06:27;;;;;;;10.73;9.73;;;13.50;95.00;;;;;;5049180;28;20187;-77
2021/05/30 01:08:53;;;;;;;10.05;8.63;;;13.40;95.20;;;;;;5050428;28;20228;-77
2021/05/30 01:11:22;;;;;;;10.80;9.23;;;13.50;95.50;;;;;;5050590;28;20204;-77
2021/05/30 01:13:51;;;;;;;10.55;9.52;;;13.40;95.80;;;;;;5032615;28;21208;-77
2021/05/30 01:16:18;;;;;;;9.82;8.90;;;13.40;96.10;;;;;;5050323;28;20173;-77
2021/05/30 01:18:47;;;;;;;11.10;9.13;;;13.40;96.40;;;;;;5050363;28;20212;-77
2021/05/30 01:21:13;;;;;;;10.95;9.45;;;13.30;96.60;;;;;;5049577;28;20166;-77
2021/05/30 01:23:39;;;;;;;11.07;9.97;;;13.30;96.90;;;;;;5050824;28;20191;-77
2021/05/30 01:26:04;;;;;;;10.30;9.30;;;13.30;97.20;;;;;;5050817;28;20568;-77
2021/05/30 01:28:30;;;;;;;11.03;9.63;;;13.30;97.50;;;;;;5050555;28;20555;-76
2021/05/30 01:30:56;;;;;;;10.43;9.37;;;13.30;97.60;;;;;;5032921;28;20662;-77
2021/05/30 01:33:22;;;;;;;9.67;8.67;;;13.20;97.90;;;;;;5050783;28;20216;-77
2021/05/30 01:35:48;;;;;;;10.85;9.30;;;13.30;98.20;;;;;;5052292;28;20177;-78
2021/05/30 01:38:14;;;;;;;11.93;8.70;;;13.20;98.40;;;;;;5054252;28;20173;-77
2021/05/30 01:40:41;;;;;;;10.80;9.80;;;13.20;98.60;;;;;;5036740;28;20177;-78
2021/05/30 01:43:07;;;;;;;10.50;9.50;;;13.20;98.80;;;;;;5054273;28;20177;-77
2021/05/30 01:45:34;;;;;;;10.90;9.45;;;13.20;99.10;;;;;;5054920;28;20170;-77
2021/05/30 01:48:01;;;;;;;9.88;8.95;;;13.20;99.30;;;;;;5038021;28;20256;-78
2021/05/30 01:50:28;;;;;;;11.68;10.48;;;13.10;99.50;;;;;;5056455;28;20168;-80
2021/05/30 01:53:00;;;;;;;10.55;9.07;;;13.10;99.80;;;;;;5055425;28;20175;-80
2021/05/30 01:55:48;;;;;;;10.70;9.65;;;13.10;99.90;;;;;;5054602;28;20248;-80
2021/05/30 01:58:15;;;;;;;13.05;10.60;;;13.10;99.90;;;;;;5052873;28;20173;-80
2021/05/30 02:00:41;;;;;;;12.98;10.40;;;13.10;99.90;;;;;;5054413;28;20161;-80
2021/05/30 02:03:08;;;;;;;9.02;8.10;;;13.10;99.90;;;;;;5052878;28;20266;-80
2021/05/30 02:05:34;;;;;;;10.85;9.60;;;13.00;99.90;;;;;;5052927;28;20169;-80
2021/05/30 02:08:01;;;;;;;11.80;10.50;;;13.00;99.90;;;;;;5053469;28;20375;-80
2021/05/30 02:10:27;;;;;;;11.27;10.02;;;13.00;99.90;;;;;;5052425;28;20176;-81
2021/05/30 02:12:55;;;;;;;11.77;10.68;;;12.90;99.90;;;;;;5053784;28;20168;-80
2021/05/30 02:15:22;;;;;;;13.15;11.60;;;12.90;99.90;;;;;;5052659;28;20742;-80
2021/05/30 02:17:48;;;;;;;12.02;10.63;;;12.90;99.90;;;;;;5053415;28;20629;-80
2021/05/30 02:20:15;;;;;;;11.95;10.57;;;12.90;99.90;;;;;;5052403;28;20279;-80
2021/05/30 02:22:40;;;;;;;13.30;10.52;;;12.90;99.90;;;;;;5053709;28;20264;-80
2021/05/30 02:25:10;;;;;;;11.73;10.63;;;12.80;99.90;;;;;;5054310;28;20232;-80
2021/05/30 02:27:35;;;;;;;10.43;9.20;;;12.80;99.90;;;;;;5051842;28;20575;-80
2021/05/30 02:30:01;;;;;;;11.40;10.30;;;12.70;99.90;;;;;;5053534;28;20173;-80
2021/05/30 02:32:27;;;;;;;12.37;10.90;;;12.70;99.90;;;;;;5052263;28;20645;-80
2021/05/30 02:34:53;;;;;;;12.50;11.07;;;12.70;99.90;;;;;;5052946;28;20193;-80
2021/05/30 02:37:19;;;;;;;12.00;10.33;;;12.70;99.90;;;;;;5052523;28;20587;-80
2021/05/30 02:39:45;;;;;;;12.07;10.88;;;12.60;99.90;;;;;;5036744;28;20189;-80
2021/05/30 02:42:11;;;;;;;10.18;9.18;;;12.60;99.90;;;;;;5061347;28;20177;-80
2021/05/30 02:44:38;;;;;;;11.73;10.63;;;12.60;99.90;;;;;;5035232;28;20688;-80
2021/05/30 02:47:04;;;;;;;11.63;10.40;;;12.60;99.90;;;;;;5051354;28;20611;-80
2021/05/30 02:49:30;;;;;;;12.35;11.18;;;12.60;99.90;;;;;;5051906;28;20227;-80
2021/05/30 02:51:56;;;;;;;11.40;10.30;;;12.50;99.90;;;;;;5053021;28;20173;-80
2021/05/30 02:54:22;;;;;;;12.20;11.00;;;12.50;99.90;;;;;;5052880;28;20210;-80
2021/05/30 02:56:48;;;;;;;14.07;10.80;;;12.50;99.90;;;;;;5052689;28;20522;-80
2021/05/30 02:59:13;;;;;;;10.97;9.97;;;12.50;99.90;;;;;;5052847;28;20516;-80
2021/05/30 03:01:39;;;;;;;12.30;10.83;;;12.50;99.90;;;;;;5053682;28;20633;-80
2021/05/30 03:04:05;;;;;;;9.80;8.90;;;12.40;99.90;;;;;;5051400;28;20181;-80
2021/05/30 03:06:31;;;;;;;11.43;9.80;;;12.40;99.90;;;;;;5052455;28;20544;-80
2021/05/30 03:08:58;;;;;;;11.67;10.50;;;12.40;99.90;;;;;;5052712;28;20658;-80
2021/05/30 03:11:25;;;;;;;12.48;10.55;;;12.40;99.90;;;;;;5052739;28;20571;-80
2021/05/30 03:13:52;;;;;;;9.63;8.73;;;12.30;99.90;;;;;;5051612;28;20280;-80
2021/05/30 03:16:19;;;;;;;10.20;9.20;;;12.30;99.90;;;;;;5050952;28;20173;-80
2021/05/30 03:18:45;;;;;;;11.70;10.23;;;12.30;99.90;;;;;;5052396;28;20200;-80
2021/05/30 03:21:12;;;;;;;12.52;10.15;;;12.30;99.90;;;;;;5052547;28;20172;-80
2021/05/30 03:23:37;;;;;;;12.52;10.38;;;12.30;99.90;;;;;;5052580;28;20552;-80
2021/05/30 03:26:03;;;;;;;11.10;10.00;;;12.20;99.90;;;;;;5052338;28;20157;-80
2021/05/30 03:28:29;;;;;;;10.90;9.80;;;12.20;99.90;;;;;;5052110;28;20563;-80
2021/05/30 03:30:55;;;;;;;10.27;9.27;;;12.20;99.90;;;;;;5051121;28;20164;-80
2021/05/30 03:33:20;;;;;;;12.63;10.43;;;12.20;99.90;;;;;;5050859;28;20200;-80
2021/05/30 03:35:46;;;;;;;11.33;9.80;;;12.20;99.90;;;;;;5051075;28;20529;-80
2021/05/30 03:38:14;;;;;;;11.35;10.25;;;12.20;99.90;;;;;;5050466;28;20189;-80
2021/05/30 03:43:08;;;;;;;10.90;9.90;;;12.20;99.90;;;;;;5050711;28;20169;-80
2021/05/30 03:45:34;;;;;;;11.88;10.68;;;12.10;99.90;;;;;;5052178;28;20169;-80
2021/05/30 03:48:00;;;;;;;10.85;9.85;;;12.20;99.90;;;;;;5051590;28;20172;-80
2021/05/30 03:50:25;;;;;;;10.27;9.17;;;12.10;99.90;;;;;;5034191;28;20165;-80
2021/05/30 03:52:51;;;;;;;11.60;10.43;;;12.10;99.90;;;;;;5051827;28;20161;-80
2021/05/30 03:55:19;;;;;;;12.53;11.23;;;12.10;99.90;;;;;;5051842;28;20579;-80
2021/05/30 03:57:45;;;;;;;11.60;10.35;;;12.10;99.90;;;;;;5049918;28;21406;-80
2021/05/30 04:00:14;;;;;;;12.35;9.35;;;12.10;99.90;;;;;;5051631;28;20181;-80
2021/05/30 04:02:40;;;;;;;11.77;10.68;;;12.10;99.90;;;;;;5050541;28;20172;-80
2021/05/30 04:05:06;;;;;;;11.67;9.43;;;12.20;99.90;;;;;;5051633;28;20210;-80
2021/05/30 04:07:32;;;;;;;12.40;11.20;;;12.20;99.90;;;;;;5051414;28;20603;-80
2021/05/30 04:10:06;;;;;;;11.70;10.50;;;12.20;99.90;;;;;;5051748;28;20161;-80
2021/05/30 04:12:39;;;;;;;11.82;9.98;;;12.20;99.90;;;;;;5051778;28;20180;-80
2021/05/30 04:15:07;;;;;;;11.27;10.13;;;12.30;99.90;;;;;;5050192;28;20193;-80
2021/05/30 04:17:34;;;;;;;11.85;10.60;;;12.30;99.90;;;;;;5051923;28;20196;-80
2021/05/30 04:20:00;;;;;;;11.48;10.38;;;12.30;99.90;;;;;;5051524;28;20189;-80
2021/05/30 04:22:26;;;;;;;10.63;9.60;;;12.30;99.90;;;;;;5050125;28;20165;-80
2021/05/30 04:24:52;;;;;;;11.07;9.97;;;12.40;99.90;;;;;;5051557;28;20200;-80
2021/05/30 04:27:18;;;;;;;11.77;10.57;;;12.40;99.90;;;;;;5051017;28;20667;-80
2021/05/30 04:29:44;;;;;;;11.90;10.70;;;12.60;99.90;;;;;;5033636;28;20176;-80
2021/05/30 04:32:09;;;;;;;10.10;9.05;;;12.70;99.90;;;;;;5049983;28;20176;-80
2021/05/30 04:34:35;;;;;;;11.00;9.20;;;12.90;99.90;;;;;;5051209;28;20695;-80
2021/05/30 04:37:01;;;;;;;10.30;9.30;;;13.00;99.90;;;;;;5050926;28;20513;-80
2021/05/30 04:39:31;;;;;;;9.63;8.67;;;13.10;99.90;;;;;;5051341;28;20179;-80
2021/05/30 04:41:57;;;;;;;10.20;9.07;;;13.20;99.90;;;;;;5049967;28;20173;-80
2021/05/30 04:44:23;;;;;;;9.80;8.80;;;13.30;99.90;;;;;;5051391;28;20693;-80
2021/05/30 04:46:49;;;;;;;9.73;8.80;;;13.50;99.90;;;;;;5050869;28;20167;-80
2021/05/30 04:49:14;;;;;;;9.70;8.70;;;13.70;99.90;;;;;;5050953;28;20679;-80
2021/05/30 04:51:40;;;;;;;11.43;9.30;;;14.10;99.90;;;;;;5050090;28;20177;-80
2021/05/30 04:54:06;;;;;;;9.70;8.67;;;14.50;99.90;;;;;;5052012;28;20200;-80
2021/05/30 04:56:32;;;;;;;9.20;8.00;;;14.90;99.90;;;;;;5050799;28;20571;-80
2021/05/30 04:58:58;;;;;;;8.80;8.00;;;15.10;99.90;;;;;;5049749;28;20201;-80
2021/05/30 05:01:24;;;;;;;9.70;8.80;;;15.40;99.90;;;;;;5051195;28;20173;-80
2021/05/30 05:03:50;;;;;;;8.90;7.00;;;15.80;99.90;;;;;;5051304;28;20204;-80
2021/05/30 05:06:16;;;;;;;7.90;7.23;;;16.20;99.90;;;;;;5050787;28;20564;-80
2021/05/30 05:08:42;;;;;;;8.60;7.87;;;16.60;99.90;;;;;;5051018;28;20578;-80
2021/05/30 05:11:09;;;;;;;8.20;7.40;;;16.90;99.90;;;;;;5036783;28;20576;-80
2021/05/30 05:13:36;;;;;;;8.00;7.17;;;17.20;99.90;;;;;;5055193;28;20603;-80
2021/05/30 05:16:02;;;;;;;8.17;7.37;;;17.50;99.90;;;;;;5055046;28;20574;-80
2021/05/30 05:18:30;;;;;;;7.13;6.50;;;17.60;99.90;;;;;;5053362;28;20619;-80
2021/05/30 05:20:56;;;;;;;7.40;6.70;;;17.80;99.90;;;;;;5056567;28;20215;-80
2021/05/30 05:23:23;;;;;;;7.60;7.00;;;18.00;99.90;;;;;;5057619;28;20587;-80
2021/05/30 05:25:53;;;;;;;7.50;6.70;;;18.10;99.90;;;;;;5065447;28;20560;-80
2021/05/30 05:28:20;;;;;;;7.80;7.03;;;18.20;99.90;;;;;;5063407;28;20678;-80
2021/05/30 05:30:47;;;;;;;9.00;6.90;;;18.20;99.90;;;;;;5065039;28;20586;-80
2021/05/30 05:33:12;;;;;;;8.10;7.37;;;18.30;99.90;;;;;;5066000;28;20598;-80
2021/05/30 05:35:38;;;;;;;7.53;6.80;;;18.40;99.90;;;;;;5045287;28;20571;-80
2021/05/30 05:38:05;;;;;;;7.90;7.23;;;18.50;99.90;;;;;;5059560;28;20619;-80
2021/05/30 05:40:31;;;;;;;7.63;6.90;;;18.60;99.90;;;;;;5056799;28;20180;-80
2021/05/30 05:42:58;;;;;;;6.77;6.07;;;18.80;99.90;;;;;;5055408;28;20975;-81
2021/05/30 05:45:24;;;;;;;7.80;7.10;;;18.80;99.90;;;;;;5057939;28;20928;-80
2021/05/30 05:47:51;;;;;;;5.60;5.03;;;18.90;99.90;;;;;;5057328;28;20917;-81
2021/05/30 05:50:20;;;;;;;5.83;5.33;;;19.20;99.90;;;;;;5054063;28;20925;-81
2021/05/30 05:52:47;;;;;;;6.37;5.87;;;19.70;99.90;;;;;;5054923;28;20620;-81
2021/05/30 05:55:14;;;;;;;6.17;5.50;;;20.70;99.90;;;;;;5054767;28;20622;-80
2021/05/30 05:57:41;;;;;;;5.40;4.90;;;21.50;99.90;;;;;;5054139;28;21193;-80
2021/05/30 06:00:13;;;;;;;4.87;4.47;;;22.30;99.90;;;;;;5052898;28;20590;-82
2021/05/30 06:02:39;;;;;;;4.70;4.27;;;23.10;99.90;;;;;;5036440;28;20614;-80
2021/05/30 06:05:07;;;;;;;5.60;5.10;;;23.90;99.00;;;;;;5053027;28;20634;-81
2021/05/30 06:07:34;;;;;;;6.03;4.13;;;24.70;98.60;;;;;;5053726;28;20979;-81
2021/05/30 06:10:00;;;;;;;3.50;3.20;;;25.70;97.70;;;;;;5054196;28;20560;-79
2021/05/30 06:12:26;;;;;;;4.53;4.20;;;26.50;96.10;;;;;;5052726;28;20568;-81
2021/05/30 06:14:52;;;;;;;5.57;5.07;;;27.00;93.00;;;;;;5035958;28;21011;-81
2021/05/30 06:17:17;;;;;;;4.70;3.57;;;27.50;90.30;;;;;;5051885;28;20196;-81
2021/05/30 06:19:43;;;;;;;4.03;3.73;;;27.90;90.10;;;;;;5053733;28;20177;-81
2021/05/30 06:22:09;;;;;;;4.37;4.00;;;28.50;88.60;;;;;;5052291;28;20570;-81
2021/05/30 06:24:35;;;;;;;4.20;3.80;;;29.10;85.50;;;;;;5053601;28;20188;-80
2021/05/30 06:27:03;;;;;;;3.97;3.57;;;29.40;82.00;;;;;;5052164;28;20303;-80
2021/05/30 06:29:30;;;;;;;4.10;3.63;;;29.80;77.00;;;;;;5052357;28;21219;-80
2021/05/30 06:31:55;;;;;;;3.40;3.17;;;29.90;74.40;;;;;;5053783;28;20639;-81
2021/05/30 06:34:21;;;;;;;3.80;3.07;;;30.00;72.40;;;;;;5053494;28;20591;-80
2021/05/30 06:36:49;;;;;;;3.73;3.10;;;30.10;70.50;;;;;;5051876;28;20168;-80
2021/05/30 06:39:16;;;;;;;3.90;3.60;;;30.30;68.30;;;;;;5035291;28;20173;-80
2021/05/30 06:41:42;;;;;;;4.83;4.37;;;30.60;67.30;;;;;;5051943;28;20595;-80
2021/05/30 06:44:08;;;;;;;3.40;3.10;;;30.90;61.70;;;;;;5052085;28;20601;-80
2021/05/30 06:46:35;;;;;;;4.53;4.13;;;31.20;64.00;;;;;;5051594;28;20566;-80
2021/05/30 06:49:01;;;;;;;3.53;3.17;;;31.40;61.30;;;;;;5052068;28;20240;-80
2021/05/30 06:51:30;;;;;;;5.07;3.70;;;31.50;59.40;;;;;;5053095;28;20650;-80
2021/05/30 06:53:57;;;;;;;4.30;3.30;;;31.70;58.70;;;;;;5053380;28;20608;-80
2021/05/30 06:56:23;;;;;;;4.23;3.83;;;32.00;58.60;;;;;;5052776;28;20560;-80
2021/05/30 06:58:49;;;;;;;5.00;4.50;;;32.30;57.90;;;;;;5052798;28;20616;-80
2021/05/30 07:01:16;;;;;;;3.40;3.03;;;32.50;53.80;;;;;;5051729;28;20661;-80
2021/05/30 07:04:05;;;;;;;3.10;2.70;;;32.60;54.90;;;;;;5056438;28;20666;-80
2021/05/30 07:06:31;;;;;;;3.30;3.00;;;32.90;54.60;;;;;;5051356;28;20581;-80
2021/05/30 07:08:56;;;;;;;4.97;4.47;;;32.90;52.30;;;;;;5052043;28;20970;-79
2021/05/30 07:11:22;;;;;;;3.40;3.10;;;33.00;52.40;;;;;;5053970;28;20176;-79
2021/05/30 07:13:48;;;;;;;5.50;3.27;;;32.90;50.90;;;;;;5053381;28;20290;-79
2021/05/30 07:16:14;;;;;;;3.20;2.90;;;32.50;49.40;;;;;;5053044;28;20270;-79
2021/05/30 07:18:40;;;;;;;4.00;3.70;;;32.30;49.00;;;;;;5051358;28;20207;-79
2021/05/30 07:21:07;;;;;;;3.83;3.37;;;32.10;47.60;;;;;;5053898;28;20593;-79
2021/05/30 07:23:35;;;;;;;3.43;2.57;;;31.60;48.00;;;;;;5053055;28;20962;-79
2021/05/30 07:26:01;;;;;;;2.63;2.30;;;31.30;48.30;;;;;;5052982;28;20574;-79
2021/05/30 07:28:27;;;;;;;2.87;2.67;;;31.50;49.50;;;;;;5052371;28;20631;-79
2021/05/30 07:30:53;;;;;;;2.73;2.53;;;32.00;50.40;;;;;;5053795;28;20570;-79
2021/05/30 07:33:19;;;;;;;3.03;2.63;;;32.60;50.00;;;;;;5051980;28;20204;-79
2021/05/30 07:35:44;;;;;;;2.93;2.73;;;32.90;49.40;;;;;;5052755;28;20600;-79
2021/05/30 07:38:10;;;;;;;2.90;2.37;;;33.20;48.30;;;;;;5052748;28;20214;-79
2021/05/30 07:40:36;;;;;;;2.83;2.60;;;33.40;48.20;;;;;;5053692;28;20262;-79
2021/05/30 07:43:03;;;;;;;3.30;3.00;;;33.90;48.30;;;;;;5051613;28;20602;-79
2021/05/30 07:45:29;;;;;;;2.30;2.10;;;34.40;47.50;;;;;;5051355;28;20175;-79
2021/05/30 07:47:56;;;;;;;2.10;1.90;;;34.80;47.80;;;;;;5052247;28;20890;-79
2021/05/30 07:50:23;;;;;;;2.30;2.10;;;35.40;47.10;;;;;;5050979;28;20780;-79
2021/05/30 07:52:48;;;;;;;2.70;2.50;;;35.60;46.10;;;;;;5052158;28;20567;-79
2021/05/30 07:55:14;;;;;;;4.23;2.70;;;35.40;43.10;;;;;;5051848;28;20622;-79
2021/05/30 07:57:41;;;;;;;2.97;2.27;;;35.10;43.80;;;;;;5051708;28;20346;-80
2021/05/30 08:00:10;;;;;;;2.97;2.77;;;35.20;43.70;;;;;;5051789;28;20930;-79
2021/05/30 08:02:39;;;;;;;2.30;2.10;;;35.20;42.90;;;;;;5051848;28;20567;-80
2021/05/30 08:05:06;;;;;;;3.07;2.47;;;35.40;43.50;;;;;;5050542;28;20598;-80
2021/05/30 08:07:32;;;;;;;2.83;2.30;;;35.70;43.10;;;;;;5050118;28;20173;-79
2021/05/30 08:09:58;;;;;;;3.20;2.20;;;35.90;42.30;;;;;;5051685;28;20678;-79
2021/05/30 08:12:26;;;;;;;2.13;1.67;;;36.10;41.80;;;;;;5051797;28;20972;-78
2021/05/30 08:14:52;;;;;;;2.20;2.00;;;36.10;41.70;;;;;;5033636;28;20247;-79
2021/05/30 08:17:18;;;;;;;2.10;1.80;;;36.30;41.60;;;;;;5051156;28;20626;-79
2021/05/30 08:19:44;;;;;;;2.70;2.40;;;36.40;40.70;;;;;;5051520;28;20964;-79
2021/05/30 08:22:10;;;;;;;2.20;1.90;;;36.10;39.60;;;;;;5051665;28;20168;-79
2021/05/30 08:24:37;;;;;;;2.23;1.73;;;36.00;39.90;;;;;;5051361;28;20604;-79
2021/05/30 08:27:03;;;;;;;2.47;2.27;;;36.10;40.20;;;;;;5051409;28;20972;-79
2021/05/30 08:29:29;;;;;;;2.73;1.60;;;36.10;39.40;;;;;;5051529;28;20563;-79
2021/05/30 08:31:55;;;;;;;2.30;1.77;;;36.30;39.60;;;;;;5050577;28;20625;-79
2021/05/30 08:34:21;;;;;;;2.70;1.90;;;36.50;39.60;;;;;;5053912;28;20181;-79
2021/05/30 08:36:54;;;;;;;2.20;2.00;;;36.80;39.20;;;;;;5034232;28;20582;-79
2021/05/30 08:39:26;;;;;;;2.20;2.00;;;37.10;39.10;;;;;;5052610;28;20181;-79
2021/05/30 08:41:52;;;;;;;2.23;2.03;;;37.40;39.20;;;;;;5050778;28;20559;-79
2021/05/30 08:44:17;;;;;;;1.83;1.57;;;37.80;39.10;;;;;;5053177;28;20204;-79
2021/05/30 08:46:43;;;;;;;2.33;1.90;;;37.90;37.30;;;;;;5055867;28;20169;-79
2021/05/30 08:49:10;;;;;;;2.10;1.87;;;37.50;36.30;;;;;;5059156;28;20227;-80
2021/05/30 08:51:37;;;;;;;1.90;1.40;;;37.20;36.50;;;;;;5054787;28;20165;-80
2021/05/30 08:54:07;;;;;;;2.30;1.60;;;37.10;36.70;;;;;;5056911;28;20702;-80
2021/05/30 08:56:33;;;;;;;1.57;1.30;;;37.20;36.60;;;;;;5037499;28;20572;-78
2021/05/30 08:59:30;;;;;;;2.03;1.83;;;37.50;36.90;;;;;;5056002;28;20582;-80
2021/05/30 09:02:09;;;;;;;1.30;0.93;;;37.70;36.30;;;;;;5054754;28;20180;-80
2021/05/30 09:04:36;;;;;;;1.60;1.20;;;37.70;35.40;;;;;;5056407;28;20582;-80
2021/05/30 09:07:03;;;;;;;1.40;0.90;;;37.70;34.30;;;;;;5054901;28;21014;-80
2021/05/30 09:09:39;;;;;;;1.60;1.27;;;37.60;34.50;;;;;;5056817;28;20881;-80
2021/05/30 09:12:10;;;;;;;1.50;1.10;;;37.60;34.70;;;;;;5055339;28;20574;-80
2021/05/30 09:14:44;;;;;;;1.50;1.00;;;37.70;34.50;;;;;;5044259;28;20965;-79
2021/05/30 09:17:11;;;;;;;2.43;1.10;;;37.90;34.10;;;;;;5065433;28;20609;-79
2021/05/30 09:19:39;;;;;;;1.50;0.97;;;37.50;32.70;;;;;;5068178;28;20567;-78
2021/05/30 09:22:20;;;;;;;1.60;1.00;;;36.90;32.10;;;;;;5057326;28;20574;-79
2021/05/30 09:24:52;;;;;;;1.40;1.00;;;36.60;32.60;;;;;;5074850;28;20607;-79
2021/05/30 09:27:19;;;;;;;1.40;1.00;;;36.50;32.40;;;;;;5059447;28;20627;-79
2021/05/30 09:29:45;;;;;;;1.27;0.80;;;36.40;32.10;;;;;;5042872;28;20601;-79
2021/05/30 09:32:11;;;;;;;1.60;1.00;;;36.20;31.90;;;;;;5056782;28;20580;-79
2021/05/30 09:34:38;;;;;;;1.50;1.30;;;36.20;32.80;;;;;;5054973;28;20724;-79
2021/05/30 09:37:05;;;;;;;2.33;0.90;;;36.40;32.60;;;;;;5056470;28;20165;-79
2021/05/30 09:39:34;;;;;;;2.00;1.10;;;36.40;32.20;;;;;;5055346;28;20912;-78
2021/05/30 09:42:21;;;;;;;1.90;0.90;;;36.30;32.20;;;;;;5055894;28;20961;-79
2021/05/30 09:45:00;;;;;;;2.00;1.17;;;36.40;32.00;;;;;;5060056;28;20602;-78
2021/05/30 09:47:46;;;;;;;1.40;0.90;;;36.00;31.30;;;;;;5067062;28;20994;-79
2021/05/30 09:50:18;;;;;;;1.60;0.90;;;35.80;32.80;;;;;;5063758;28;20597;-79
2021/05/30 09:52:51;;;;;;;2.00;1.13;;;35.80;32.90;;;;;;5064794;28;21007;-80
2021/05/30 09:55:23;;;;;;;1.43;1.30;;;36.10;32.90;;;;;;5043315;28;20594;-81
2021/05/30 09:58:10;;;;;;;1.60;1.20;;;36.20;32.10;;;;;;5056540;28;20694;-80
2021/05/30 10:00:36;;;;;;;1.40;0.97;;;36.30;31.70;;;;;;5056230;28;20567;-81
2021/05/30 10:03:02;;;;;;;1.40;0.90;;;36.20;31.60;;;;;;5064329;28;20572;-81
2021/05/30 10:05:28;;;;;;;1.30;0.90;;;36.20;31.30;;;;;;5063011;28;20607;-80
2021/05/30 10:07:56;;;;;;;1.47;0.90;;;36.00;30.50;;;;;;5037472;28;20637;-80
2021/05/30 10:10:22;;;;;;;1.67;1.07;;;35.90;30.50;;;;;;5058375;28;20579;-80
2021/05/30 10:12:48;;;;;;;1.40;0.97;;;35.90;30.30;;;;;;5057281;28;20965;-80
2021/05/30 10:15:14;;;;;;;1.70;0.90;;;36.00;31.10;;;;;;5054440;28;20637;-80
2021/05/30 10:17:41;;;;;;;1.37;0.90;;;36.20;31.40;;;;;;5053113;28;20571;-80
2021/05/30 10:20:11;;;;;;;1.53;1.07;;;36.50;31.20;;;;;;5054649;28;20245;-80
2021/05/30 10:22:40;;;;;;;2.93;1.00;;;36.70;31.10;;;;;;5055605;28;20610;-81
2021/05/30 10:25:08;;;;;;;1.47;0.90;;;36.90;30.80;;;;;;5064035;28;20636;-79
2021/05/30 10:27:34;;;;;;;3.40;0.90;;;37.20;30.40;;;;;;5064558;28;20631;-79
2021/05/30 10:30:14;;;;;;;1.17;0.83;;;37.20;30.10;;;;;;5065556;28;20570;-80
2021/05/30 10:32:46;;;;;;;1.23;0.83;;;37.40;30.50;;;;;;5058236;28;20678;-80
2021/05/30 10:35:16;;;;;;;2.43;1.00;;;37.50;29.90;;;;;;5064639;28;20622;-80
2021/05/30 10:37:43;;;;;;;1.70;1.00;;;37.70;30.10;;;;;;5064122;28;20592;-80
2021/05/30 10:40:21;;;;;;;1.60;1.00;;;37.90;30.00;;;;;;5059224;28;20682;-80
2021/05/30 10:43:09;;;;;;;1.50;0.93;;;38.00;29.10;;;;;;5054242;28;20583;-80
2021/05/30 10:45:44;;;;;;;1.50;0.90;;;37.80;29.30;;;;;;5052788;28;21135;-80
2021/05/30 10:48:14;;;;;;;1.47;1.03;;;37.50;29.50;;;;;;5050437;28;20788;-80
2021/05/30 10:53:32;;;;;;;2.50;0.90;;;36.70;29.10;;;;;;5053480;28;20737;-80
2021/05/30 10:56:23;;;;;;;1.40;0.93;;;36.40;29.30;;;;;;5054837;28;20624;-80
2021/05/30 10:59:04;;;;;;;3.20;1.27;;;36.20;29.60;;;;;;5059212;28;20587;-80
2021/05/30 11:01:33;;;;;;;1.30;1.00;;;35.80;29.30;;;;;;5059832;28;20592;-80
2021/05/30 11:04:29;;;;;;;1.80;1.10;;;35.30;28.90;;;;;;5060026;28;20615;-80
2021/05/30 11:06:59;;;;;;;1.30;1.10;;;34.80;29.40;;;;;;5052139;28;20614;-79
2021/05/30 11:09:58;;;;;;;1.77;1.10;;;34.40;29.50;;;;;;5052967;28;20594;-80
2021/05/30 11:12:33;;;;;;;1.50;1.00;;;34.10;29.90;;;;;;5052746;28;20606;-80
2021/05/30 11:15:08;;;;;;;1.60;1.00;;;33.90;29.80;;;;;;5055649;28;20604;-80
2021/05/30 11:17:36;;;;;;;7.23;1.20;;;33.70;29.90;;;;;;5052179;28;20591;-80
2021/05/30 11:20:10;;;;;;;1.30;0.90;;;33.50;30.00;;;;;;5052529;28;20917;-81
2021/05/30 11:22:53;;;;;;;1.73;1.00;;;33.50;30.20;;;;;;5052626;28;20599;-81
2021/05/30 11:25:31;;;;;;;2.00;1.20;;;33.50;30.70;;;;;;5049178;28;20590;-80
2021/05/30 11:28:02;;;;;;;1.80;1.10;;;33.60;30.80;;;;;;5052464;28;20741;-80
2021/05/30 11:30:35;;;;;;;1.50;1.00;;;33.50;30.30;;;;;;5048809;28;20593;-79
2021/05/30 11:33:02;;;;;;;1.73;1.00;;;33.30;30.40;;;;;;5036050;28;20594;-80
2021/05/30 11:35:29;;;;;;;1.80;1.00;;;33.00;30.00;;;;;;5036576;28;21161;-80
2021/05/30 11:37:56;;;;;;;1.70;0.70;;;32.80;30.10;;;;;;5052761;28;20600;-80
2021/05/30 11:40:22;;;;;;;1.90;0.77;;;32.60;31.00;;;;;;5054669;28;20995;-80
2021/05/30 11:42:49;;;;;;;1.40;0.97;;;32.70;31.30;;;;;;5055545;28;20631;-80
2021/05/30 11:45:36;;;;;;;1.50;1.10;;;32.60;30.60;;;;;;5057248;28;20698;-79
2021/05/30 11:48:09;;;;;;;1.77;1.10;;;32.20;30.40;;;;;;5053900;28;20628;-80
2021/05/30 11:50:55;;;;;;;1.40;1.10;;;32.20;30.70;;;;;;5051091;28;20575;-80
2021/05/30 11:53:35;;;;;;;1.37;0.90;;;32.20;30.70;;;;;;5034109;28;20620;-80
2021/05/30 11:56:04;;;;;;;2.07;1.13;;;32.10;31.30;;;;;;5034258;28;20616;-80
2021/05/30 11:58:30;;;;;;;1.50;1.00;;;32.10;31.40;;;;;;5050571;28;20927;-79
2021/05/30 12:00:58;;;;;;;1.37;1.07;;;32.30;31.50;;;;;;5051456;28;20695;-80
2021/05/30 12:03:25;;;;;;;1.50;1.07;;;32.30;31.50;;;;;;5034572;28;20722;-80
2021/05/30 12:06:01;;;;;;;1.47;1.00;;;32.40;31.30;;;;;;5051920;28;20571;-80
2021/05/30 12:08:28;;;;;;;1.93;1.17;;;32.30;31.80;;;;;;5052106;28;20650;-79
2021/05/30 12:10:59;;;;;;;2.17;0.93;;;32.40;31.80;;;;;;5050416;28;20907;-79
2021/05/30 12:13:37;;;;;;;1.90;1.10;;;32.40;31.60;;;;;;5051661;28;21025;-78
2021/05/30 12:16:21;;;;;;;1.87;1.07;;;32.30;31.90;;;;;;5051609;28;20575;-79
2021/05/30 12:18:57;;;;;;;1.23;1.00;;;32.30;31.70;;;;;;5053954;28;21170;-79
2021/05/30 12:21:26;;;;;;;1.50;0.90;;;32.20;31.40;;;;;;5053378;28;20582;-78
2021/05/30 12:23:52;;;;;;;1.37;1.00;;;32.10;31.10;;;;;;5051455;28;20610;-79
2021/05/30 12:26:19;;;;;;;2.63;0.90;;;31.70;30.90;;;;;;5050287;28;20577;-79
2021/05/30 12:28:46;;;;;;;2.33;1.10;;;31.40;30.90;;;;;;5051618;28;20647;-79
2021/05/30 12:31:16;;;;;;;1.70;1.30;;;31.10;31.10;;;;;;5050526;28;20575;-79
2021/05/30 12:34:08;;;;;;;1.70;1.10;;;30.70;31.40;;;;;;5052220;28;20599;-78
2021/05/30 12:36:44;;;;;;;1.73;1.30;;;30.30;31.40;;;;;;5048956;28;20622;-78
2021/05/30 12:39:14;;;;;;;2.53;1.20;;;30.00;31.90;;;;;;5050421;28;20571;-79
2021/05/30 12:41:41;;;;;;;2.77;1.00;;;29.80;31.90;;;;;;5051566;28;20571;-78
2021/05/30 12:44:11;;;;;;;3.73;1.00;;;29.50;32.10;;;;;;5050122;28;21009;-78
2021/05/30 12:46:38;;;;;;;1.80;1.00;;;29.30;32.10;;;;;;5050037;28;20619;-78
2021/05/30 12:49:15;;;;;;;2.23;1.10;;;29.10;32.10;;;;;;5050294;28;20615;-78
2021/05/30 12:52:00;;;;;;;4.83;1.33;;;28.90;33.00;;;;;;5051448;28;20559;-79
2021/05/30 12:54:27;;;;;;;1.70;1.20;;;28.60;32.70;;;;;;5069037;23;20662;-83